sensor_id;sensor_type;location;lat;lon;timestamp;pressure;altitude;pressure_sealevel;temperature;humidity
36062;BME280;22123;52.412;20.970;2023-07-28T00:02:10;99845.81;;;13.28;100.00
36062;BME280;22123;52.412;20.970;2023-07-28T00:04:36;99716.19;;;12.53;100.00
36062;BME280;22123;52.412;20.970;2023-07-28T00:07:03;99838.94;;;13.26;100.00
36062;BME280;22123;52.412;20.970;2023-07-28T00:09:29;99831.66;;;13.26;100.00
36062;BME280;22123;52.412;20.970;2023-07-28T00:11:59;99718.47;;;12.56;100.00
36062;BME280;22123;52.412;20.970;2023-07-28T00:14:26;99786.53;;;13.07;100.00
36062;BME280;22123;52.412;20.970;2023-07-28T00:16:52;99751.97;;;12.88;100.00
36062;BME280;22123;52.412;20.970;2023-07-28T00:19:19;99838.38;;;13.44;100.00
36062;BME280;22123;52.412;20.970;2023-07-28T00:21:45;99781.13;;;13.13;100.00
36062;BME280;22123;52.412;20.970;2023-07-28T00:24:11;99702.09;;;12.64;100.00
36062;BME280;22123;52.412;20.970;2023-07-28T00:26:37;99821.13;;;13.51;100.00
36062;BME280;22123;52.412;20.970;2023-07-28T00:29:03;99717.06;;;12.87;100.00
36062;BME280;22123;52.412;20.970;2023-07-28T00:31:29;99841.31;;;13.69;100.00
36062;BME280;22123;52.412;20.970;2023-07-28T00:33:54;99725.81;;;12.96;100.00
36062;BME280;22123;52.412;20.970;2023-07-28T00:36:20;99773.22;;;13.25;100.00
36062;BME280;22123;52.412;20.970;2023-07-28T00:38:46;99722.28;;;12.95;100.00
36062;BME280;22123;52.412;20.970;2023-07-28T00:41:12;99763.66;;;13.16;100.00
36062;BME280;22123;52.412;20.970;2023-07-28T00:43:38;99755.56;;;13.16;100.00
36062;BME280;22123;52.412;20.970;2023-07-28T00:46:04;99755.78;;;13.21;100.00
36062;BME280;22123;52.412;20.970;2023-07-28T00:48:30;99725.22;;;13.07;100.00
36062;BME280;22123;52.412;20.970;2023-07-28T00:50:56;99805.09;;;13.56;100.00
36062;BME280;22123;52.412;20.970;2023-07-28T00:53:23;99752.84;;;13.29;100.00
36062;BME280;22123;52.412;20.970;2023-07-28T00:55:49;99771.63;;;13.44;100.00
36062;BME280;22123;52.412;20.970;2023-07-28T00:58:16;99740.81;;;13.32;100.00
36062;BME280;22123;52.412;20.970;2023-07-28T01:00:41;99763.72;;;13.49;100.00
36062;BME280;22123;52.412;20.970;2023-07-28T01:03:07;99826.72;;;13.90;100.00
36062;BME280;22123;52.412;20.970;2023-07-28T01:05:47;99821.09;;;13.91;100.00
36062;BME280;22123;52.412;20.970;2023-07-28T01:08:27;99769.53;;;13.60;100.00
36062;BME280;22123;52.412;20.970;2023-07-28T01:10:55;99739.19;;;13.44;100.00
36062;BME280;22123;52.412;20.970;2023-07-28T01:13:21;99754.38;;;13.59;100.00
36062;BME280;22123;52.412;20.970;2023-07-28T01:15:47;99690.91;;;13.28;100.00
36062;BME280;22123;52.412;20.970;2023-07-28T01:18:13;99742.47;;;13.60;100.00
36062;BME280;22123;52.412;20.970;2023-07-28T01:20:39;99803.84;;;13.99;100.00
36062;BME280;22123;52.412;20.970;2023-07-28T01:23:13;99799.84;;;14.02;100.00
36062;BME280;22123;52.412;20.970;2023-07-28T01:25:58;99730.84;;;13.59;100.00
36062;BME280;22123;52.412;20.970;2023-07-28T01:28:28;99717.50;;;13.64;100.00
36062;BME280;22123;52.412;20.970;2023-07-28T01:30:54;99791.09;;;14.13;100.00
36062;BME280;22123;52.412;20.970;2023-07-28T01:33:20;99720.00;;;13.79;100.00
36062;BME280;22123;52.412;20.970;2023-07-28T01:35:46;99785.25;;;14.16;100.00
36062;BME280;22123;52.412;20.970;2023-07-28T01:38:12;99673.44;;;13.44;100.00
36062;BME280;22123;52.412;20.970;2023-07-28T01:40:38;99746.59;;;13.96;100.00
36062;BME280;22123;52.412;20.970;2023-07-28T01:43:04;99709.19;;;13.72;100.00
36062;BME280;22123;52.412;20.970;2023-07-28T01:45:29;99727.03;;;13.94;100.00
36062;BME280;22123;52.412;20.970;2023-07-28T01:47:55;99725.38;;;13.93;100.00
36062;BME280;22123;52.412;20.970;2023-07-28T01:50:21;99775.44;;;14.29;100.00
36062;BME280;22123;52.412;20.970;2023-07-28T01:52:47;99675.09;;;13.65;100.00
36062;BME280;22123;52.412;20.970;2023-07-28T01:55:13;99713.69;;;13.99;100.00
36062;BME280;22123;52.412;20.970;2023-07-28T01:57:39;99759.63;;;14.25;100.00
36062;BME280;22123;52.412;20.970;2023-07-28T02:00:06;99734.91;;;14.08;100.00
36062;BME280;22123;52.412;20.970;2023-07-28T02:02:32;99759.63;;;14.25;100.00
36062;BME280;22123;52.412;20.970;2023-07-28T02:04:58;99641.00;;;13.57;100.00
36062;BME280;22123;52.412;20.970;2023-07-28T02:07:24;99746.69;;;14.27;100.00
36062;BME280;22123;52.412;20.970;2023-07-28T02:09:49;99712.84;;;14.05;100.00
36062;BME280;22123;52.412;20.970;2023-07-28T02:12:15;99649.28;;;13.62;100.00
36062;BME280;22123;52.412;20.970;2023-07-28T02:14:41;99731.75;;;14.18;100.00
36062;BME280;22123;52.412;20.970;2023-07-28T02:17:07;99632.47;;;13.53;100.00
36062;BME280;22123;52.412;20.970;2023-07-28T02:19:47;99721.97;;;14.11;100.00
36062;BME280;22123;52.412;20.970;2023-07-28T02:22:13;99755.88;;;14.26;100.00
36062;BME280;22123;52.412;20.970;2023-07-28T02:24:39;99742.34;;;14.26;100.00
36062;BME280;22123;52.412;20.970;2023-07-28T02:27:05;99758.75;;;14.32;100.00
36062;BME280;22123;52.412;20.970;2023-07-28T02:29:31;99729.47;;;14.15;100.00
36062;BME280;22123;52.412;20.970;2023-07-28T02:31:56;99730.91;;;14.18;100.00
36062;BME280;22123;52.412;20.970;2023-07-28T02:34:22;99721.75;;;14.19;100.00
36062;BME280;22123;52.412;20.970;2023-07-28T02:36:48;99731.31;;;14.28;100.00
36062;BME280;22123;52.412;20.970;2023-07-28T02:39:14;99749.16;;;14.42;100.00
36062;BME280;22123;52.412;20.970;2023-07-28T02:41:40;99754.13;;;14.46;100.00
36062;BME280;22123;52.412;20.970;2023-07-28T02:44:06;99763.88;;;14.53;100.00
36062;BME280;22123;52.412;20.970;2023-07-28T02:46:31;99729.78;;;14.39;100.00
36062;BME280;22123;52.412;20.970;2023-07-28T02:48:57;99759.28;;;14.54;100.00
36062;BME280;22123;52.412;20.970;2023-07-28T02:51:23;99736.66;;;14.35;100.00
36062;BME280;22123;52.412;20.970;2023-07-28T02:53:49;99776.16;;;14.56;100.00
36062;BME280;22123;52.412;20.970;2023-07-28T02:56:15;99745.00;;;14.40;100.00
36062;BME280;22123;52.412;20.970;2023-07-28T02:58:40;99770.53;;;14.57;100.00
36062;BME280;22123;52.412;20.970;2023-07-28T03:01:06;99758.25;;;14.55;100.00
36062;BME280;22123;52.412;20.970;2023-07-28T03:03:32;99736.22;;;14.44;100.00
36062;BME280;22123;52.412;20.970;2023-07-28T03:05:58;99763.69;;;14.62;100.00
36062;BME280;22123;52.412;20.970;2023-07-28T03:08:24;99747.84;;;14.52;100.00
36062;BME280;22123;52.412;20.970;2023-07-28T03:10:49;99737.88;;;14.46;100.00
36062;BME280;22123;52.412;20.970;2023-07-28T03:13:15;99763.25;;;14.65;100.00
36062;BME280;22123;52.412;20.970;2023-07-28T03:15:41;99750.31;;;14.60;100.00
36062;BME280;22123;52.412;20.970;2023-07-28T03:18:07;99745.94;;;14.66;100.00
36062;BME280;22123;52.412;20.970;2023-07-28T03:20:32;99703.91;;;14.50;100.00
36062;BME280;22123;52.412;20.970;2023-07-28T03:22:58;99729.25;;;14.69;100.00
36062;BME280;22123;52.412;20.970;2023-07-28T03:25:24;99711.78;;;14.58;100.00
36062;BME280;22123;52.412;20.970;2023-07-28T03:27:50;99729.03;;;14.70;100.00
36062;BME280;22123;52.412;20.970;2023-07-28T03:30:15;99714.69;;;14.56;100.00
36062;BME280;22123;52.412;20.970;2023-07-28T03:32:41;99733.59;;;14.70;100.00
36062;BME280;22123;52.412;20.970;2023-07-28T03:35:07;99716.56;;;14.63;100.00
36062;BME280;22123;52.412;20.970;2023-07-28T03:37:33;99692.47;;;14.48;100.00
36062;BME280;22123;52.412;20.970;2023-07-28T03:39:59;99684.97;;;14.50;100.00
36062;BME280;22123;52.412;20.970;2023-07-28T03:42:26;99711.50;;;14.73;100.00
36062;BME280;22123;52.412;20.970;2023-07-28T03:44:52;99681.59;;;14.54;100.00
36062;BME280;22123;52.412;20.970;2023-07-28T03:47:19;99720.25;;;14.75;100.00
36062;BME280;22123;52.412;20.970;2023-07-28T03:49:44;99673.84;;;14.58;100.00
36062;BME280;22123;52.412;20.970;2023-07-28T03:52:10;99708.97;;;14.78;100.00
36062;BME280;22123;52.412;20.970;2023-07-28T03:54:36;99680.13;;;14.58;100.00
36062;BME280;22123;52.412;20.970;2023-07-28T03:57:02;99702.78;;;14.71;100.00
36062;BME280;22123;52.412;20.970;2023-07-28T03:59:28;99685.31;;;14.60;100.00
36062;BME280;22123;52.412;20.970;2023-07-28T04:01:54;99728.28;;;14.88;100.00
36062;BME280;22123;52.412;20.970;2023-07-28T04:04:19;99698.13;;;14.78;100.00
36062;BME280;22123;52.412;20.970;2023-07-28T04:06:47;99715.97;;;14.92;100.00
36062;BME280;22123;52.412;20.970;2023-07-28T04:09:14;99691.25;;;14.82;100.00
36062;BME280;22123;52.412;20.970;2023-07-28T04:11:40;99674.19;;;14.75;100.00
36062;BME280;22123;52.412;20.970;2023-07-28T04:14:06;99715.50;;;15.02;100.00
36062;BME280;22123;52.412;20.970;2023-07-28T04:16:32;99719.44;;;15.06;100.00
36062;BME280;22123;52.412;20.970;2023-07-28T04:18:58;99694.06;;;14.94;100.00
36062;BME280;22123;52.412;20.970;2023-07-28T04:21:24;99715.44;;;15.09;100.00
36062;BME280;22123;52.412;20.970;2023-07-28T04:23:50;99680.19;;;14.84;100.00
36062;BME280;22123;52.412;20.970;2023-07-28T04:26:16;99715.19;;;15.10;100.00
36062;BME280;22123;52.412;20.970;2023-07-28T04:28:42;99683.22;;;14.94;100.00
36062;BME280;22123;52.412;20.970;2023-07-28T04:31:08;99697.53;;;15.08;100.00
36062;BME280;22123;52.412;20.970;2023-07-28T04:33:34;99681.53;;;15.00;100.00
36062;BME280;22123;52.412;20.970;2023-07-28T04:36:02;99702.81;;;15.21;100.00
36062;BME280;22123;52.412;20.970;2023-07-28T04:38:28;99688.22;;;15.22;100.00
36062;BME280;22123;52.412;20.970;2023-07-28T04:40:54;99690.72;;;15.24;100.00
36062;BME280;22123;52.412;20.970;2023-07-28T04:43:20;99675.94;;;15.20;100.00
36062;BME280;22123;52.412;20.970;2023-07-28T04:45:45;99685.00;;;15.32;100.00
36062;BME280;22123;52.412;20.970;2023-07-28T04:48:11;99644.53;;;15.12;100.00
36062;BME280;22123;52.412;20.970;2023-07-28T04:50:37;99684.50;;;15.42;100.00
36062;BME280;22123;52.412;20.970;2023-07-28T04:53:09;99678.84;;;15.43;100.00
36062;BME280;22123;52.412;20.970;2023-07-28T04:55:34;99664.47;;;15.43;100.00
36062;BME280;22123;52.412;20.970;2023-07-28T04:58:00;99686.19;;;15.61;100.00
36062;BME280;22123;52.412;20.970;2023-07-28T05:00:26;99689.28;;;15.65;100.00
36062;BME280;22123;52.412;20.970;2023-07-28T05:02:52;99685.44;;;15.73;100.00
36062;BME280;22123;52.412;20.970;2023-07-28T05:05:17;99632.28;;;15.46;100.00
36062;BME280;22123;52.412;20.970;2023-07-28T05:07:43;99675.38;;;15.80;100.00
36062;BME280;22123;52.412;20.970;2023-07-28T05:10:09;99650.16;;;15.73;100.00
36062;BME280;22123;52.412;20.970;2023-07-28T05:12:35;99663.63;;;15.86;100.00
36062;BME280;22123;52.412;20.970;2023-07-28T05:15:01;99668.59;;;15.89;100.00
36062;BME280;22123;52.412;20.970;2023-07-28T05:17:27;99635.53;;;15.74;100.00
36062;BME280;22123;52.412;20.970;2023-07-28T05:19:52;99664.75;;;15.97;100.00
36062;BME280;22123;52.412;20.970;2023-07-28T05:22:18;99644.41;;;15.88;100.00
36062;BME280;22123;52.412;20.970;2023-07-28T05:24:44;99666.31;;;16.05;100.00
36062;BME280;22123;52.412;20.970;2023-07-28T05:27:11;99660.06;;;16.04;100.00
36062;BME280;22123;52.412;20.970;2023-07-28T05:29:37;99628.34;;;15.86;100.00
36062;BME280;22123;52.412;20.970;2023-07-28T05:32:03;99664.50;;;16.17;100.00
36062;BME280;22123;52.412;20.970;2023-07-28T05:34:28;99639.78;;;16.07;100.00
36062;BME280;22123;52.412;20.970;2023-07-28T05:36:54;99665.25;;;16.24;100.00
36062;BME280;22123;52.412;20.970;2023-07-28T05:39:20;99637.81;;;16.14;100.00
36062;BME280;22123;52.412;20.970;2023-07-28T05:41:46;99640.06;;;16.17;100.00
36062;BME280;22123;52.412;20.970;2023-07-28T05:44:12;99638.53;;;16.21;100.00
36062;BME280;22123;52.412;20.970;2023-07-28T05:46:38;99638.53;;;16.21;100.00
36062;BME280;22123;52.412;20.970;2023-07-28T05:49:04;99669.66;;;16.37;100.00
36062;BME280;22123;52.412;20.970;2023-07-28T05:51:29;99667.75;;;16.38;100.00
36062;BME280;22123;52.412;20.970;2023-07-28T05:53:55;99640.22;;;16.22;100.00
36062;BME280;22123;52.412;20.970;2023-07-28T05:56:21;99666.47;;;16.40;100.00
36062;BME280;22123;52.412;20.970;2023-07-28T05:58:47;99681.50;;;16.43;100.00
36062;BME280;22123;52.412;20.970;2023-07-28T06:01:13;99641.25;;;16.21;100.00
36062;BME280;22123;52.412;20.970;2023-07-28T06:03:39;99676.66;;;16.45;100.00
36062;BME280;22123;52.412;20.970;2023-07-28T06:06:05;99640.34;;;16.27;100.00
36062;BME280;22123;52.412;20.970;2023-07-28T06:08:31;99658.34;;;16.40;100.00
36062;BME280;22123;52.412;20.970;2023-07-28T06:10:56;99670.28;;;16.51;100.00
36062;BME280;22123;52.412;20.970;2023-07-28T06:13:22;99651.25;;;16.39;100.00
36062;BME280;22123;52.412;20.970;2023-07-28T06:15:48;99676.69;;;16.57;100.00
36062;BME280;22123;52.412;20.970;2023-07-28T06:18:14;99677.31;;;16.59;100.00
36062;BME280;22123;52.412;20.970;2023-07-28T06:20:43;99674.13;;;16.62;100.00
36062;BME280;22123;52.412;20.970;2023-07-28T06:23:09;99642.78;;;16.47;100.00
36062;BME280;22123;52.412;20.970;2023-07-28T06:25:35;99652.34;;;16.50;100.00
36062;BME280;22123;52.412;20.970;2023-07-28T06:28:01;99670.13;;;16.64;100.00
36062;BME280;22123;52.412;20.970;2023-07-28T06:30:28;99646.91;;;16.50;100.00
36062;BME280;22123;52.412;20.970;2023-07-28T06:32:54;99605.25;;;16.26;100.00
36062;BME280;22123;52.412;20.970;2023-07-28T06:35:19;99668.84;;;16.67;100.00
36062;BME280;22123;52.412;20.970;2023-07-28T06:37:45;99655.69;;;16.64;100.00
36062;BME280;22123;52.412;20.970;2023-07-28T06:40:11;99670.84;;;16.72;100.00
36062;BME280;22123;52.412;20.970;2023-07-28T06:42:39;99651.56;;;16.61;100.00
36062;BME280;22123;52.412;20.970;2023-07-28T06:45:05;99669.34;;;16.76;100.00
36062;BME280;22123;52.412;20.970;2023-07-28T06:47:31;99652.19;;;16.75;100.00
36062;BME280;22123;52.412;20.970;2023-07-28T06:49:57;99594.34;;;16.44;100.00
36062;BME280;22123;52.412;20.970;2023-07-28T06:52:23;99647.41;;;16.89;100.00
36062;BME280;22123;52.412;20.970;2023-07-28T06:54:48;99580.88;;;16.49;100.00
36062;BME280;22123;52.412;20.970;2023-07-28T06:57:15;99628.63;;;16.88;100.00
36062;BME280;22123;52.412;20.970;2023-07-28T06:59:41;99607.53;;;16.83;100.00
36062;BME280;22123;52.412;20.970;2023-07-28T07:02:07;99617.84;;;16.93;100.00
36062;BME280;22123;52.412;20.970;2023-07-28T07:04:33;99634.88;;;17.12;100.00
36062;BME280;22123;52.412;20.970;2023-07-28T07:06:58;99634.53;;;17.20;100.00
36062;BME280;22123;52.412;20.970;2023-07-28T07:09:24;99628.63;;;17.23;100.00
36062;BME280;22123;52.412;20.970;2023-07-28T07:11:50;99641.41;;;17.34;100.00
36062;BME280;22123;52.412;20.970;2023-07-28T07:14:16;99642.59;;;17.38;100.00
36062;BME280;22123;52.412;20.970;2023-07-28T07:16:42;99629.56;;;17.29;100.00
36062;BME280;22123;52.412;20.970;2023-07-28T07:19:08;99650.41;;;17.47;100.00
36062;BME280;22123;52.412;20.970;2023-07-28T07:21:34;99643.06;;;17.47;100.00
36062;BME280;22123;52.412;20.970;2023-07-28T07:24:00;99645.19;;;17.33;100.00
36062;BME280;22123;52.412;20.970;2023-07-28T07:26:26;99656.06;;;17.33;100.00
36062;BME280;22123;52.412;20.970;2023-07-28T07:28:52;99643.88;;;17.24;100.00
36062;BME280;22123;52.412;20.970;2023-07-28T07:31:18;99614.16;;;16.87;100.00
36062;BME280;22123;52.412;20.970;2023-07-28T07:33:44;99671.31;;;17.23;100.00
36062;BME280;22123;52.412;20.970;2023-07-28T07:36:17;99638.78;;;16.92;100.00
36062;BME280;22123;52.412;20.970;2023-07-28T07:38:44;99668.75;;;16.85;100.00
36062;BME280;22123;52.412;20.970;2023-07-28T07:41:10;99658.59;;;16.50;100.00
36062;BME280;22123;52.412;20.970;2023-07-28T07:43:36;99669.19;;;16.40;100.00
36062;BME280;22123;52.412;20.970;2023-07-28T07:46:01;99649.13;;;16.11;100.00
36062;BME280;22123;52.412;20.970;2023-07-28T07:48:27;99637.75;;;16.02;100.00
36062;BME280;22123;52.412;20.970;2023-07-28T07:50:53;99667.50;;;16.09;100.00
36062;BME280;22123;52.412;20.970;2023-07-28T07:53:19;99644.47;;;15.81;100.00
36062;BME280;22123;52.412;20.970;2023-07-28T07:55:44;99670.69;;;15.87;100.00
36062;BME280;22123;52.412;20.970;2023-07-28T07:58:10;99666.81;;;15.76;100.00
36062;BME280;22123;52.412;20.970;2023-07-28T08:00:39;99669.53;;;15.76;100.00
36062;BME280;22123;52.412;20.970;2023-07-28T08:03:05;99650.09;;;15.61;100.00
36062;BME280;22123;52.412;20.970;2023-07-28T08:05:31;99647.91;;;15.51;100.00
36062;BME280;22123;52.412;20.970;2023-07-28T08:07:57;99668.56;;;15.71;100.00
36062;BME280;22123;52.412;20.970;2023-07-28T08:10:22;99622.75;;;15.44;100.00
36062;BME280;22123;52.412;20.970;2023-07-28T08:12:48;99657.53;;;15.65;100.00
36062;BME280;22123;52.412;20.970;2023-07-28T08:15:14;99659.88;;;15.62;100.00
36062;BME280;22123;52.412;20.970;2023-07-28T08:17:40;99628.59;;;15.41;100.00
36062;BME280;22123;52.412;20.970;2023-07-28T08:20:07;99629.22;;;15.43;100.00
36062;BME280;22123;52.412;20.970;2023-07-28T08:22:33;99656.34;;;15.61;100.00
36062;BME280;22123;52.412;20.970;2023-07-28T08:24:59;99639.59;;;15.46;100.00
36062;BME280;22123;52.412;20.970;2023-07-28T08:27:25;99629.13;;;15.31;100.00
36062;BME280;22123;52.412;20.970;2023-07-28T08:29:51;99630.16;;;15.30;100.00
36062;BME280;22123;52.412;20.970;2023-07-28T08:32:17;99635.41;;;15.25;100.00
36062;BME280;22123;52.412;20.970;2023-07-28T08:34:43;99630.66;;;15.20;100.00
36062;BME280;22123;52.412;20.970;2023-07-28T08:37:09;99666.94;;;15.44;100.00
36062;BME280;22123;52.412;20.970;2023-07-28T08:39:34;99672.16;;;15.46;100.00
36062;BME280;22123;52.412;20.970;2023-07-28T08:42:01;99631.59;;;15.33;100.00
36062;BME280;22123;52.412;20.970;2023-07-28T08:44:31;99633.41;;;15.39;100.00
36062;BME280;22123;52.412;20.970;2023-07-28T08:46:57;99642.03;;;15.54;100.00
36062;BME280;22123;52.412;20.970;2023-07-28T08:49:24;99648.81;;;15.63;100.00
36062;BME280;22123;52.412;20.970;2023-07-28T08:51:50;99653.72;;;15.73;100.00
36062;BME280;22123;52.412;20.970;2023-07-28T08:54:16;99631.31;;;15.59;100.00
36062;BME280;22123;52.412;20.970;2023-07-28T08:56:44;99641.94;;;15.61;100.00
36062;BME280;22123;52.412;20.970;2023-07-28T08:59:10;99611.50;;;15.40;100.00
36062;BME280;22123;52.412;20.970;2023-07-28T09:01:39;99649.25;;;15.60;100.00
36062;BME280;22123;52.412;20.970;2023-07-28T09:04:12;99611.72;;;15.39;100.00
36062;BME280;22123;52.412;20.970;2023-07-28T09:06:38;99602.81;;;15.32;100.00
36062;BME280;22123;52.412;20.970;2023-07-28T09:09:07;99641.41;;;15.52;100.00
36062;BME280;22123;52.412;20.970;2023-07-28T09:11:32;99613.09;;;15.29;100.00
36062;BME280;22123;52.412;20.970;2023-07-28T09:14:00;99609.28;;;15.30;100.00
36062;BME280;22123;52.412;20.970;2023-07-28T09:16:26;99604.03;;;15.36;100.00
36062;BME280;22123;52.412;20.970;2023-07-28T09:19:05;99603.44;;;15.52;100.00
36062;BME280;22123;52.412;20.970;2023-07-28T09:21:32;99629.97;;;15.69;100.00
36062;BME280;22123;52.412;20.970;2023-07-28T09:24:00;99639.28;;;15.79;100.00
36062;BME280;22123;52.412;20.970;2023-07-28T09:29:18;99602.97;;;15.55;100.00
36062;BME280;22123;52.412;20.970;2023-07-28T09:31:48;99633.69;;;15.74;100.00
36062;BME280;22123;52.412;20.970;2023-07-28T09:34:25;99629.47;;;15.78;100.00
36062;BME280;22123;52.412;20.970;2023-07-28T09:36:53;99612.78;;;15.75;100.00
36062;BME280;22123;52.412;20.970;2023-07-28T09:39:20;99629.75;;;15.89;100.00
36062;BME280;22123;52.412;20.970;2023-07-28T09:41:46;99630.13;;;15.92;100.00
36062;BME280;22123;52.412;20.970;2023-07-28T09:44:12;99595.31;;;15.71;100.00
36062;BME280;22123;52.412;20.970;2023-07-28T09:46:49;99608.50;;;15.86;100.00
36062;BME280;22123;52.412;20.970;2023-07-28T09:49:15;99597.41;;;15.87;100.00
36062;BME280;22123;52.412;20.970;2023-07-28T09:51:48;99618.75;;;16.02;100.00
36062;BME280;22123;52.412;20.970;2023-07-28T09:54:23;99627.25;;;16.06;100.00
36062;BME280;22123;52.412;20.970;2023-07-28T09:56:49;99600.00;;;15.82;100.00
36062;BME280;22123;52.412;20.970;2023-07-28T09:59:16;99629.72;;;16.07;100.00
36062;BME280;22123;52.412;20.970;2023-07-28T10:01:44;99564.34;;;15.78;100.00
36062;BME280;22123;52.412;20.970;2023-07-28T10:04:10;99602.50;;;16.14;100.00
36062;BME280;22123;52.412;20.970;2023-07-28T10:06:36;99612.22;;;16.22;100.00
36062;BME280;22123;52.412;20.970;2023-07-28T10:09:02;99596.69;;;16.10;100.00
36062;BME280;22123;52.412;20.970;2023-07-28T10:11:28;99608.53;;;16.16;100.00
36062;BME280;22123;52.412;20.970;2023-07-28T10:13:54;99613.13;;;16.15;100.00
36062;BME280;22123;52.412;20.970;2023-07-28T10:16:29;99612.44;;;16.20;100.00
36062;BME280;22123;52.412;20.970;2023-07-28T10:18:55;99592.00;;;16.17;100.00
36062;BME280;22123;52.412;20.970;2023-07-28T10:21:21;99594.16;;;16.27;100.00
36062;BME280;22123;52.412;20.970;2023-07-28T10:23:53;99608.13;;;16.31;100.00
36062;BME280;22123;52.412;20.970;2023-07-28T10:26:31;99580.91;;;16.19;100.00
36062;BME280;22123;52.412;20.970;2023-07-28T10:29:08;99590.28;;;16.35;100.00
36062;BME280;22123;52.412;20.970;2023-07-28T10:31:34;99584.84;;;16.35;100.00
36062;BME280;22123;52.412;20.970;2023-07-28T10:33:59;99605.56;;;16.48;100.00
36062;BME280;22123;52.412;20.970;2023-07-28T10:41:26;99600.50;;;16.51;100.00
36062;BME280;22123;52.412;20.970;2023-07-28T10:43:51;99605.38;;;16.61;100.00
36062;BME280;22123;52.412;20.970;2023-07-28T10:46:20;99581.34;;;16.46;100.00
36062;BME280;22123;52.412;20.970;2023-07-28T10:48:47;99583.81;;;16.48;100.00
36062;BME280;22123;52.412;20.970;2023-07-28T10:51:24;99587.66;;;16.59;100.00
36062;BME280;22123;52.412;20.970;2023-07-28T10:54:00;99587.88;;;16.57;100.00
36062;BME280;22123;52.412;20.970;2023-07-28T10:56:26;99590.72;;;16.62;100.00
36062;BME280;22123;52.412;20.970;2023-07-28T10:58:58;99585.28;;;16.62;100.00
36062;BME280;22123;52.412;20.970;2023-07-28T11:01:35;99589.66;;;16.63;100.00
36062;BME280;22123;52.412;20.970;2023-07-28T11:04:11;99588.59;;;16.64;100.00
36062;BME280;22123;52.412;20.970;2023-07-28T11:06:38;99584.47;;;16.62;100.00
36062;BME280;22123;52.412;20.970;2023-07-28T11:09:06;99555.34;;;16.39;100.00
36062;BME280;22123;52.412;20.970;2023-07-28T11:11:32;99580.06;;;16.61;100.00
36062;BME280;22123;52.412;20.970;2023-07-28T11:13:59;99567.19;;;16.56;100.00
36062;BME280;22123;52.412;20.970;2023-07-28T11:16:24;99578.31;;;16.78;100.00
36062;BME280;22123;52.412;20.970;2023-07-28T11:18:50;99536.13;;;16.64;100.00
36062;BME280;22123;52.412;20.970;2023-07-28T11:21:22;99544.31;;;16.76;100.00
36062;BME280;22123;52.412;20.970;2023-07-28T11:23:47;99546.81;;;16.77;100.00
36062;BME280;22123;52.412;20.970;2023-07-28T11:26:13;99577.69;;;17.07;100.00
36062;BME280;22123;52.412;20.970;2023-07-28T11:28:39;99550.25;;;16.96;100.00
36062;BME280;22123;52.412;20.970;2023-07-28T11:31:05;99553.56;;;16.98;100.00
36062;BME280;22123;52.412;20.970;2023-07-28T11:33:31;99576.47;;;17.14;100.00
36062;BME280;22123;52.412;20.970;2023-07-28T11:35:57;99534.53;;;16.98;100.00
36062;BME280;22123;52.412;20.970;2023-07-28T11:38:22;99558.16;;;17.21;100.00
36062;BME280;22123;52.412;20.970;2023-07-28T11:40:49;99548.47;;;17.14;100.00
36062;BME280;22123;52.412;20.970;2023-07-28T11:43:15;99534.75;;;17.09;100.00
36062;BME280;22123;52.412;20.970;2023-07-28T11:45:41;99561.09;;;17.32;100.00
36062;BME280;22123;52.412;20.970;2023-07-28T11:48:06;99561.69;;;17.34;100.00
36062;BME280;22123;52.412;20.970;2023-07-28T11:50:40;99554.59;;;17.33;100.00
36062;BME280;22123;52.412;20.970;2023-07-28T11:53:07;99556.59;;;17.37;100.00
36062;BME280;22123;52.412;20.970;2023-07-28T11:55:35;99527.16;;;17.34;100.00
36062;BME280;22123;52.412;20.970;2023-07-28T11:58:02;99519.97;;;17.69;100.00
36062;BME280;22123;52.412;20.970;2023-07-28T12:00:32;99516.28;;;18.04;100.00
36062;BME280;22123;52.412;20.970;2023-07-28T12:05:31;99522.69;;;18.60;100.00
36062;BME280;22123;52.412;20.970;2023-07-28T12:07:57;99537.91;;;18.90;100.00
36062;BME280;22123;52.412;20.970;2023-07-28T12:10:23;99511.03;;;18.82;100.00
36062;BME280;22123;52.412;20.970;2023-07-28T12:12:49;99509.88;;;18.78;100.00
36062;BME280;22123;52.412;20.970;2023-07-28T12:15:19;99553.91;;;19.04;100.00
36062;BME280;22123;52.412;20.970;2023-07-28T12:20:39;99545.09;;;19.36;100.00
36062;BME280;22123;52.412;20.970;2023-07-28T12:23:06;99535.63;;;19.43;100.00
36062;BME280;22123;52.412;20.970;2023-07-28T12:25:32;99540.34;;;19.48;100.00
36062;BME280;22123;52.412;20.970;2023-07-28T12:27:59;99522.34;;;19.30;100.00
36062;BME280;22123;52.412;20.970;2023-07-28T12:30:24;99513.97;;;19.15;100.00
36062;BME280;22123;52.412;20.970;2023-07-28T12:32:50;99507.88;;;19.07;100.00
36062;BME280;22123;52.412;20.970;2023-07-28T12:35:16;99535.06;;;19.19;100.00
36062;BME280;22123;52.412;20.970;2023-07-28T12:37:42;99539.97;;;19.00;100.00
36062;BME280;22123;52.412;20.970;2023-07-28T12:40:08;99545.00;;;18.91;100.00
36062;BME280;22123;52.412;20.970;2023-07-28T12:42:34;99530.22;;;18.70;100.00
36062;BME280;22123;52.412;20.970;2023-07-28T12:45:00;99555.84;;;18.86;100.00
36062;BME280;22123;52.412;20.970;2023-07-28T12:47:26;99545.09;;;18.97;100.00
36062;BME280;22123;52.412;20.970;2023-07-28T12:49:52;99519.06;;;18.89;100.00
36062;BME280;22123;52.412;20.970;2023-07-28T12:52:18;99541.56;;;19.18;100.00